Time;durP1;ratioP1;P1;durP2;ratioP2;P2;SDS_P1;SDS_P2;PMS_P1;PMS_P2;Temp;Humidity;BMP_temperature;BMP_pressure;BME280_temperature;BME280_humidity;BME280_pressure;Samples;Min_cycle;Max_cycle;Signal;HPM_P1;HPM_P2
2023/12/29 00:00:41;;;;;;;2.47;2.07;;;;;;;;;;6289286;22;20380;-92
2023/12/29 00:03:10;;;;;;;2.20;2.00;;;;;;;;;;6288700;22;20468;-93
2023/12/29 00:05:36;;;;;;;2.57;2.00;;;;;;;;;;6289237;22;20470;-92
2023/12/29 00:18:38;;;;;;;2.33;2.10;;;;;;;;;;6174633;22;4331947;-90
2023/12/29 00:21:05;;;;;;;2.80;1.97;;;;;;;;;;6299268;22;20375;-93
2023/12/29 00:23:31;;;;;;;3.10;1.80;;;;;;;;;;6301799;22;20363;-93
2023/12/29 00:25:57;;;;;;;2.80;2.60;;;;;;;;;;6301003;22;20706;-93
2023/12/29 00:28:22;;;;;;;1.70;1.60;;;;;;;;;;6325580;22;20407;-94
2023/12/29 00:30:48;;;;;;;1.90;1.60;;;;;;;;;;6299035;22;20422;-94
2023/12/29 00:33:14;;;;;;;2.80;1.67;;;;;;;;;;6298027;22;20382;-93
2023/12/29 00:35:40;;;;;;;3.07;2.37;;;;;;;;;;6324766;22;20807;-92
2023/12/29 00:38:06;;;;;;;2.30;2.10;;;;;;;;;;6297840;22;20377;-92
2023/12/29 00:40:33;;;;;;;1.80;1.70;;;;;;;;;;6298305;22;20378;-92
2023/12/29 00:43:00;;;;;;;2.13;1.93;;;;;;;;;;6302171;22;20374;-92
2023/12/29 00:45:29;;;;;;;1.97;1.77;;;;;;;;;;6300350;22;20371;-92
2023/12/29 00:47:55;;;;;;;2.40;1.80;;;;;;;;;;6301557;22;20434;-93
2023/12/29 00:50:23;;;;;;;3.00;2.67;;;;;;;;;;6298149;22;20371;-92
2023/12/29 00:52:49;;;;;;;4.57;1.80;;;;;;;;;;6300694;22;20445;-94
2023/12/29 00:55:16;;;;;;;3.30;2.30;;;;;;;;;;6300632;22;20846;-93
2023/12/29 00:57:42;;;;;;;3.10;2.53;;;;;;;;;;6299511;22;20371;-93
2023/12/29 01:00:11;;;;;;;2.03;1.83;;;;;;;;;;6301514;22;20466;-96
2023/12/29 01:02:37;;;;;;;2.30;2.10;;;;;;;;;;6298977;22;20389;-94
2023/12/29 01:05:03;;;;;;;2.53;2.00;;;;;;;;;;6300120;22;20371;-91
2023/12/29 01:07:29;;;;;;;2.70;2.33;;;;;;;;;;6298333;22;20401;-95
2023/12/29 01:09:57;;;;;;;1.50;1.40;;;;;;;;;;6300998;22;20371;-94
2023/12/29 01:12:23;;;;;;;1.97;1.63;;;;;;;;;;6325122;22;20361;-91
2023/12/29 01:14:49;;;;;;;2.23;2.00;;;;;;;;;;6299560;22;20414;-94
2023/12/29 01:17:15;;;;;;;2.63;2.00;;;;;;;;;;6291759;22;20411;-93
2023/12/29 01:19:41;;;;;;;2.67;1.77;;;;;;;;;;6285506;22;20479;-93
2023/12/29 01:22:07;;;;;;;2.00;1.90;;;;;;;;;;6285879;22;20855;-93
2023/12/29 01:24:33;;;;;;;3.07;2.17;;;;;;;;;;6287786;22;20356;-93
2023/12/29 01:26:59;;;;;;;2.63;2.43;;;;;;;;;;6287339;22;20423;-94
2023/12/29 01:29:25;;;;;;;2.60;2.23;;;;;;;;;;6286595;22;20384;-91
2023/12/29 01:31:51;;;;;;;2.23;1.90;;;;;;;;;;6285929;22;20380;-93
2023/12/29 01:34:17;;;;;;;2.47;2.27;;;;;;;;;;6291061;22;20909;-94
2023/12/29 01:36:43;;;;;;;4.30;2.30;;;;;;;;;;6287184;22;20510;-91
2023/12/29 01:39:09;;;;;;;3.53;2.07;;;;;;;;;;6287453;22;20388;-95
2023/12/29 01:41:35;;;;;;;2.17;1.90;;;;;;;;;;6286902;22;20385;-93
2023/12/29 01:44:02;;;;;;;2.20;1.97;;;;;;;;;;6287677;22;20402;-93
2023/12/29 01:46:29;;;;;;;3.07;2.27;;;;;;;;;;6311562;22;21158;-92
2023/12/29 01:48:55;;;;;;;2.50;2.30;;;;;;;;;;6311804;22;20401;-92
2023/12/29 01:51:22;;;;;;;2.87;2.10;;;;;;;;;;6311563;22;20418;-93
2023/12/29 01:53:50;;;;;;;2.37;2.17;;;;;;;;;;6286641;22;20422;-94
2023/12/29 01:56:16;;;;;;;2.87;2.43;;;;;;;;;;6287357;22;20399;-95
2023/12/29 01:58:43;;;;;;;2.50;2.30;;;;;;;;;;6311578;22;20372;-94
2023/12/29 02:01:09;;;;;;;2.83;2.47;;;;;;;;;;6287720;22;20380;-91
2023/12/29 02:03:35;;;;;;;2.17;1.97;;;;;;;;;;6287460;22;20387;-93
2023/12/29 02:06:01;;;;;;;3.20;2.37;;;;;;;;;;6287064;22;20911;-94
2023/12/29 02:08:27;;;;;;;3.80;2.47;;;;;;;;;;6312338;22;20368;-91
2023/12/29 02:10:53;;;;;;;2.67;2.47;;;;;;;;;;6286540;22;20978;-92
2023/12/29 02:13:22;;;;;;;2.33;2.10;;;;;;;;;;6286244;22;20373;-93
2023/12/29 02:15:48;;;;;;;2.53;2.33;;;;;;;;;;6287925;22;20428;-94
2023/12/29 02:18:14;;;;;;;2.20;2.00;;;;;;;;;;6286113;22;20416;-92
2023/12/29 02:20:41;;;;;;;7.13;2.43;;;;;;;;;;6288113;22;20403;-93
2023/12/29 02:23:08;;;;;;;3.13;2.77;;;;;;;;;;6285492;22;20380;-95
2023/12/29 02:25:34;;;;;;;3.73;2.40;;;;;;;;;;6287849;22;20726;-92
2023/12/29 02:28:02;;;;;;;3.10;2.57;;;;;;;;;;6287209;22;20935;-94
2023/12/29 02:30:38;;;;;;;3.00;1.93;;;;;;;;;;6285317;22;20985;-92
2023/12/29 02:33:06;;;;;;;2.87;2.47;;;;;;;;;;6284869;22;20376;-93
2023/12/29 02:35:41;;;;;;;3.93;2.50;;;;;;;;;;6284095;22;20419;-90
2023/12/29 02:38:07;;;;;;;2.70;2.50;;;;;;;;;;6285836;22;20384;-90
2023/12/29 02:40:33;;;;;;;2.97;2.37;;;;;;;;;;6285105;22;20377;-94
2023/12/29 02:43:02;;;;;;;4.20;2.03;;;;;;;;;;6284576;22;20373;-91
2023/12/29 02:45:28;;;;;;;3.10;2.70;;;;;;;;;;6284999;22;20376;-91
2023/12/29 02:47:54;;;;;;;3.33;2.37;;;;;;;;;;6283405;22;20408;-93
2023/12/29 02:50:20;;;;;;;2.83;2.60;;;;;;;;;;6285086;22;20391;-94
2023/12/29 02:52:46;;;;;;;3.90;2.57;;;;;;;;;;6284247;22;20410;-95
2023/12/29 02:55:12;;;;;;;2.50;2.00;;;;;;;;;;6287093;22;20376;-90
2023/12/29 02:57:38;;;;;;;3.27;2.97;;;;;;;;;;6285584;22;20385;-94
2023/12/29 03:00:05;;;;;;;4.70;2.40;;;;;;;;;;6286401;22;20381;-92
2023/12/29 03:02:31;;;;;;;4.40;2.03;;;;;;;;;;6284400;22;20449;-90
2023/12/29 03:04:57;;;;;;;2.50;2.30;;;;;;;;;;6286792;22;20461;-94
2023/12/29 03:07:23;;;;;;;2.70;2.30;;;;;;;;;;6285515;22;20775;-93
2023/12/29 03:09:49;;;;;;;2.60;2.40;;;;;;;;;;6284219;22;20411;-92
2023/12/29 03:12:15;;;;;;;3.20;2.73;;;;;;;;;;6284458;22;20380;-94
2023/12/29 03:14:41;;;;;;;2.53;2.10;;;;;;;;;;6285225;22;20910;-93
2023/12/29 03:17:07;;;;;;;3.03;2.80;;;;;;;;;;6284385;22;20392;-94
2023/12/29 03:19:33;;;;;;;2.83;2.60;;;;;;;;;;6283656;22;20398;-94
2023/12/29 03:21:59;;;;;;;3.97;2.80;;;;;;;;;;6284239;22;20376;-94
2023/12/29 03:24:25;;;;;;;2.80;2.50;;;;;;;;;;6287753;22;20554;-91
2023/12/29 03:26:51;;;;;;;3.40;3.10;;;;;;;;;;6285777;22;20419;-93
2023/12/29 03:29:19;;;;;;;3.63;2.20;;;;;;;;;;6287714;22;20411;-93
2023/12/29 03:31:46;;;;;;;4.33;2.47;;;;;;;;;;6284449;22;20396;-93
2023/12/29 03:34:12;;;;;;;3.83;2.70;;;;;;;;;;6284443;22;20847;-94
2023/12/29 03:36:38;;;;;;;12.60;3.83;;;;;;;;;;6283528;22;20750;-93
2023/12/29 03:39:04;;;;;;;3.00;2.63;;;;;;;;;;6285185;22;20419;-94
2023/12/29 03:41:30;;;;;;;2.50;2.30;;;;;;;;;;6284525;22;20376;-92
2023/12/29 03:43:56;;;;;;;3.37;3.00;;;;;;;;;;6286805;22;20457;-95
2023/12/29 03:46:22;;;;;;;2.40;1.90;;;;;;;;;;6285876;22;20419;-93
2023/12/29 03:48:48;;;;;;;3.20;1.90;;;;;;;;;;6285550;22;20388;-93
2023/12/29 03:51:14;;;;;;;3.07;2.60;;;;;;;;;;6283874;22;20376;-93
2023/12/29 03:53:40;;;;;;;2.50;2.30;;;;;;;;;;6311777;22;20393;-93
2023/12/29 03:56:07;;;;;;;3.43;2.40;;;;;;;;;;6287893;22;20466;-94
2023/12/29 03:58:33;;;;;;;6.00;2.00;;;;;;;;;;6282552;22;20380;-93
2023/12/29 04:00:59;;;;;;;2.40;2.20;;;;;;;;;;6312370;22;20388;-92
2023/12/29 04:03:25;;;;;;;2.70;2.50;;;;;;;;;;6283961;22;21015;-94
2023/12/29 04:05:51;;;;;;;3.07;2.40;;;;;;;;;;6285603;22;20364;-93
2023/12/29 04:08:17;;;;;;;2.40;2.20;;;;;;;;;;6284243;22;20368;-94
2023/12/29 04:10:43;;;;;;;6.37;2.83;;;;;;;;;;6283251;22;20846;-91
2023/12/29 04:13:09;;;;;;;3.37;2.60;;;;;;;;;;6285460;22;20375;-92
2023/12/29 04:15:35;;;;;;;3.17;2.10;;;;;;;;;;6285211;22;20376;-94
2023/12/29 04:18:01;;;;;;;2.33;2.13;;;;;;;;;;6286305;22;20392;-93
2023/12/29 04:20:27;;;;;;;2.13;1.70;;;;;;;;;;6286082;22;20372;-92
2023/12/29 04:22:53;;;;;;;2.70;2.50;;;;;;;;;;6285979;22;20395;-93
2023/12/29 04:25:19;;;;;;;2.60;2.17;;;;;;;;;;6287230;22;20360;-93
2023/12/29 04:27:45;;;;;;;3.73;3.20;;;;;;;;;;6281739;22;20481;-94
2023/12/29 04:30:11;;;;;;;3.20;2.43;;;;;;;;;;6284635;22;20447;-91
2023/12/29 04:32:41;;;;;;;4.63;2.20;;;;;;;;;;6283801;22;20645;-93
2023/12/29 04:35:12;;;;;;;3.70;2.50;;;;;;;;;;6313786;22;20356;-95
2023/12/29 04:37:38;;;;;;;2.87;2.50;;;;;;;;;;6288407;22;20401;-92
2023/12/29 04:40:05;;;;;;;3.57;2.90;;;;;;;;;;6285042;22;20369;-93
2023/12/29 04:42:31;;;;;;;2.20;2.03;;;;;;;;;;6284889;22;20439;-94
2023/12/29 04:45:03;;;;;;;4.73;2.13;;;;;;;;;;6313055;22;20348;-90
2023/12/29 04:47:32;;;;;;;2.70;2.40;;;;;;;;;;6285192;22;20443;-94
2023/12/29 04:49:58;;;;;;;2.90;2.27;;;;;;;;;;6288714;22;20386;-94
2023/12/29 04:52:28;;;;;;;1.93;1.77;;;;;;;;;;6286416;22;20441;-90
2023/12/29 04:54:54;;;;;;;3.13;2.80;;;;;;;;;;6286896;22;20381;-95
2023/12/29 04:57:20;;;;;;;3.93;2.30;;;;;;;;;;6287153;22;20376;-91
2023/12/29 04:59:49;;;;;;;2.90;2.70;;;;;;;;;;6289762;22;20950;-94
2023/12/29 05:02:16;;;;;;;3.30;2.00;;;;;;;;;;6288165;22;20383;-94
2023/12/29 05:04:45;;;;;;;2.87;2.10;;;;;;;;;;6288057;22;20409;-94
2023/12/29 05:07:12;;;;;;;2.47;2.20;;;;;;;;;;6290042;22;20412;-93
2023/12/29 05:09:38;;;;;;;2.40;2.07;;;;;;;;;;6285248;22;20463;-92
2023/12/29 05:12:04;;;;;;;4.57;2.70;;;;;;;;;;6288776;22;20801;-94
2023/12/29 05:14:30;;;;;;;2.70;2.50;;;;;;;;;;6289820;22;20372;-93
2023/12/29 05:16:56;;;;;;;3.10;2.40;;;;;;;;;;6291114;22;20403;-92
2023/12/29 05:19:22;;;;;;;2.23;2.00;;;;;;;;;;6289168;22;20395;-95
2023/12/29 05:21:51;;;;;;;2.23;2.00;;;;;;;;;;6290384;22;20448;-90
2023/12/29 05:24:17;;;;;;;3.17;2.00;;;;;;;;;;6290250;22;20375;-92
2023/12/29 05:26:42;;;;;;;1.93;1.73;;;;;;;;;;6289607;22;20416;-92
2023/12/29 05:29:11;;;;;;;2.50;2.30;;;;;;;;;;6287861;22;20398;-94
2023/12/29 05:31:37;;;;;;;2.17;1.80;;;;;;;;;;6290718;22;20438;-94
2023/12/29 05:34:03;;;;;;;3.00;2.40;;;;;;;;;;6288088;22;20381;-90
2023/12/29 05:36:29;;;;;;;3.67;2.50;;;;;;;;;;6289486;22;20380;-94
2023/12/29 05:38:56;;;;;;;2.63;2.43;;;;;;;;;;6289672;22;20926;-93
2023/12/29 05:41:23;;;;;;;4.20;2.70;;;;;;;;;;6290705;22;20381;-94
2023/12/29 05:43:49;;;;;;;2.50;2.30;;;;;;;;;;6314080;22;20422;-94
2023/12/29 05:46:15;;;;;;;3.87;2.47;;;;;;;;;;6289439;22;20656;-93
2023/12/29 05:48:41;;;;;;;2.97;2.50;;;;;;;;;;6288927;22;20381;-94
2023/12/29 05:51:11;;;;;;;2.23;2.07;;;;;;;;;;6290089;22;20399;-93
2023/12/29 05:53:37;;;;;;;2.90;2.57;;;;;;;;;;6314862;22;20376;-93
2023/12/29 05:56:03;;;;;;;3.70;2.30;;;;;;;;;;6290777;22;20369;-94
2023/12/29 05:58:29;;;;;;;4.07;2.50;;;;;;;;;;6290265;22;20467;-93
2023/12/29 06:00:56;;;;;;;2.70;2.27;;;;;;;;;;6291446;22;20396;-93
2023/12/29 06:03:22;;;;;;;2.80;2.50;;;;;;;;;;6287805;22;20377;-94
2023/12/29 06:05:48;;;;;;;2.67;2.30;;;;;;;;;;6316494;22;20379;-92
2023/12/29 06:08:14;;;;;;;2.60;2.40;;;;;;;;;;6290502;22;20430;-94
2023/12/29 06:10:40;;;;;;;2.80;2.60;;;;;;;;;;6289780;22;20384;-95
2023/12/29 06:13:07;;;;;;;3.10;2.90;;;;;;;;;;6291478;22;20904;-93
2023/12/29 06:15:33;;;;;;;3.87;2.53;;;;;;;;;;6292161;22;20384;-91
2023/12/29 06:17:59;;;;;;;2.90;2.30;;;;;;;;;;6290337;22;20408;-96
2023/12/29 06:20:25;;;;;;;2.57;2.37;;;;;;;;;;6289320;22;20391;-93
2023/12/29 06:22:51;;;;;;;2.70;2.30;;;;;;;;;;6290478;22;20557;-92
2023/12/29 06:25:17;;;;;;;3.47;3.13;;;;;;;;;;6295001;22;20396;-95
2023/12/29 06:27:43;;;;;;;2.83;2.17;;;;;;;;;;6292585;22;20772;-95
2023/12/29 06:30:13;;;;;;;2.23;1.90;;;;;;;;;;6292754;22;20428;-94
2023/12/29 06:32:39;;;;;;;2.67;2.30;;;;;;;;;;6292231;22;20380;-94
2023/12/29 06:35:07;;;;;;;2.47;2.27;;;;;;;;;;6294189;22;20392;-92
2023/12/29 06:37:33;;;;;;;3.07;2.40;;;;;;;;;;6292033;22;20372;-93
2023/12/29 06:39:59;;;;;;;2.30;2.10;;;;;;;;;;6291090;22;20890;-94
2023/12/29 06:42:25;;;;;;;2.20;2.00;;;;;;;;;;6292299;22;20897;-94
2023/12/29 06:44:51;;;;;;;3.00;2.77;;;;;;;;;;6291301;22;20380;-96
2023/12/29 06:47:17;;;;;;;1.77;1.53;;;;;;;;;;6292563;22;20423;-96
2023/12/29 06:49:46;;;;;;;5.23;3.40;;;;;;;;;;6288960;22;20383;-94
2023/12/29 06:52:12;;;;;;;2.43;2.23;;;;;;;;;;6291122;22;20408;-94
2023/12/29 06:54:38;;;;;;;1.87;1.73;;;;;;;;;;6288897;22;20399;-94
2023/12/29 06:57:04;;;;;;;1.70;1.60;;;;;;;;;;6291082;22;20376;-95
2023/12/29 06:59:30;;;;;;;3.20;1.97;;;;;;;;;;6289982;22;20377;-94
2023/12/29 07:01:56;;;;;;;3.47;2.60;;;;;;;;;;6290181;22;20356;-95
2023/12/29 07:04:22;;;;;;;2.47;1.83;;;;;;;;;;6288920;22;20381;-94
2023/12/29 07:06:49;;;;;;;2.50;2.23;;;;;;;;;;6290220;22;20505;-94
2023/12/29 07:09:15;;;;;;;2.13;1.93;;;;;;;;;;6287562;22;20418;-94
2023/12/29 07:11:41;;;;;;;3.00;2.53;;;;;;;;;;6287556;22;20376;-93
2023/12/29 07:14:07;;;;;;;5.93;2.60;;;;;;;;;;6313945;22;20385;-93
2023/12/29 07:16:33;;;;;;;1.80;1.43;;;;;;;;;;6290467;22;20383;-95
2023/12/29 07:18:59;;;;;;;3.50;2.33;;;;;;;;;;6294046;22;20696;-93
2023/12/29 07:21:25;;;;;;;3.43;2.50;;;;;;;;;;6292669;22;20392;-96
2023/12/29 07:23:51;;;;;;;2.87;2.30;;;;;;;;;;6293657;22;20367;-93
2023/12/29 07:26:17;;;;;;;3.07;1.93;;;;;;;;;;6293946;22;20392;-95
2023/12/29 07:28:43;;;;;;;2.77;1.97;;;;;;;;;;6292602;22;20710;-94
2023/12/29 07:31:09;;;;;;;3.40;2.80;;;;;;;;;;6291142;22;20372;-92
2023/12/29 07:33:35;;;;;;;2.20;1.90;;;;;;;;;;6292814;22;20366;-94
2023/12/29 07:36:01;;;;;;;2.80;1.97;;;;;;;;;;6293350;22;20424;-95
2023/12/29 07:38:27;;;;;;;7.47;1.90;;;;;;;;;;6292821;22;20376;-91
2023/12/29 07:40:53;;;;;;;3.40;2.57;;;;;;;;;;6294160;22;20428;-94
2023/12/29 07:43:19;;;;;;;2.70;1.80;;;;;;;;;;6292876;22;20371;-94
2023/12/29 07:45:45;;;;;;;3.17;1.63;;;;;;;;;;6292266;22;20394;-92
2023/12/29 07:48:11;;;;;;;3.77;2.13;;;;;;;;;;6293074;22;20985;-94
2023/12/29 07:50:37;;;;;;;4.67;2.60;;;;;;;;;;6294230;22;20395;-92
2023/12/29 07:53:03;;;;;;;2.10;2.00;;;;;;;;;;6293363;22;20386;-96
2023/12/29 07:55:31;;;;;;;2.00;1.80;;;;;;;;;;6294231;22;20394;-92
2023/12/29 07:57:57;;;;;;;2.10;1.50;;;;;;;;;;6292906;22;20380;-94
2023/12/29 08:00:23;;;;;;;3.33;2.17;;;;;;;;;;6292679;22;20447;-94
2023/12/29 08:02:50;;;;;;;2.73;2.30;;;;;;;;;;6292617;22;20550;-94
2023/12/29 08:05:16;;;;;;;2.30;2.10;;;;;;;;;;6292859;22;20368;-93
2023/12/29 08:07:42;;;;;;;2.47;1.90;;;;;;;;;;6319083;22;21016;-93
2023/12/29 08:10:09;;;;;;;2.53;2.03;;;;;;;;;;6291737;22;20380;-92
2023/12/29 08:12:35;;;;;;;1.87;1.70;;;;;;;;;;6289328;22;20384;-93
2023/12/29 08:15:02;;;;;;;2.27;1.83;;;;;;;;;;6316714;22;20746;-94
2023/12/29 08:17:29;;;;;;;1.70;1.60;;;;;;;;;;6291263;22;20387;-92
2023/12/29 08:19:55;;;;;;;1.87;1.77;;;;;;;;;;6288000;22;20462;-92
2023/12/29 08:22:21;;;;;;;5.23;1.93;;;;;;;;;;6289387;22;20387;-93
2023/12/29 08:24:47;;;;;;;1.53;1.43;;;;;;;;;;6289726;22;20372;-92
2023/12/29 08:27:13;;;;;;;2.13;1.93;;;;;;;;;;6316977;22;20403;-91
2023/12/29 08:29:39;;;;;;;2.03;1.77;;;;;;;;;;6293558;22;20470;-93
2023/12/29 08:32:05;;;;;;;1.67;1.50;;;;;;;;;;6293507;22;20387;-92
2023/12/29 08:34:32;;;;;;;2.07;1.97;;;;;;;;;;6292845;22;20496;-92
2023/12/29 08:36:58;;;;;;;4.37;1.80;;;;;;;;;;6293441;22;20415;-93
2023/12/29 08:39:24;;;;;;;2.43;2.07;;;;;;;;;;6293024;22;20386;-95
2023/12/29 08:41:50;;;;;;;2.10;1.90;;;;;;;;;;6292070;22;20398;-95
2023/12/29 08:44:16;;;;;;;2.47;2.10;;;;;;;;;;6319121;22;20404;-94
2023/12/29 08:46:42;;;;;;;2.00;1.83;;;;;;;;;;6293892;22;20419;-94
2023/12/29 08:49:08;;;;;;;2.73;2.53;;;;;;;;;;6291836;22;20372;-91
2023/12/29 08:51:34;;;;;;;2.20;2.00;;;;;;;;;;6291812;22;20379;-94
2023/12/29 08:54:00;;;;;;;3.03;2.20;;;;;;;;;;6292704;22;20379;-94
2023/12/29 08:56:28;;;;;;;4.90;1.80;;;;;;;;;;6294415;22;20378;-91
2023/12/29 08:58:54;;;;;;;3.80;2.93;;;;;;;;;;6292793;22;20739;-92
2023/12/29 09:01:19;;;;;;;2.57;1.83;;;;;;;;;;6293208;22;20382;-94
2023/12/29 09:03:45;;;;;;;3.93;1.90;;;;;;;;;;6319512;22;20850;-93
2023/12/29 09:06:11;;;;;;;2.07;1.57;;;;;;;;;;6292375;22;20903;-93
2023/12/29 09:08:37;;;;;;;2.30;1.80;;;;;;;;;;6289690;22;20399;-94
2023/12/29 09:11:04;;;;;;;1.60;1.40;;;;;;;;;;6292510;22;20872;-93
2023/12/29 09:13:30;;;;;;;4.03;2.40;;;;;;;;;;6292122;22;20382;-93
2023/12/29 09:15:57;;;;;;;2.47;2.00;;;;;;;;;;6291176;22;20379;-93
2023/12/29 09:18:23;;;;;;;1.80;1.70;;;;;;;;;;6291165;22;20417;-93
2023/12/29 09:20:49;;;;;;;2.00;1.80;;;;;;;;;;6289445;22;20384;-95
2023/12/29 09:23:15;;;;;;;1.50;1.40;;;;;;;;;;6291424;22;20383;-94
2023/12/29 09:25:41;;;;;;;2.07;1.87;;;;;;;;;;6290393;22;20429;-93
2023/12/29 09:28:07;;;;;;;2.27;1.80;;;;;;;;;;6285983;22;20395;-93
2023/12/29 09:30:33;;;;;;;2.10;1.73;;;;;;;;;;6286890;22;20363;-93
2023/12/29 09:32:59;;;;;;;2.23;1.60;;;;;;;;;;6288466;22;20391;-92
2023/12/29 09:35:26;;;;;;;3.13;1.50;;;;;;;;;;6290383;22;20753;-92
2023/12/29 09:37:52;;;;;;;2.70;1.60;;;;;;;;;;6289790;22;20443;-93
2023/12/29 09:40:18;;;;;;;2.53;1.57;;;;;;;;;;6289150;22;20368;-94
2023/12/29 09:42:46;;;;;;;1.40;1.30;;;;;;;;;;6289432;22;20371;-94
2023/12/29 09:45:13;;;;;;;1.30;1.20;;;;;;;;;;6290997;22;20375;-95
2023/12/29 09:47:40;;;;;;;2.90;1.80;;;;;;;;;;6291818;22;20488;-92
2023/12/29 09:50:07;;;;;;;4.40;1.60;;;;;;;;;;6291062;22;20843;-94
2023/12/29 09:52:33;;;;;;;2.07;1.63;;;;;;;;;;6288686;22;20383;-93
2023/12/29 09:55:00;;;;;;;2.10;1.47;;;;;;;;;;6289978;22;20388;-91
2023/12/29 09:57:26;;;;;;;2.27;2.10;;;;;;;;;;6291630;22;20453;-93
2023/12/29 09:59:52;;;;;;;2.13;1.50;;;;;;;;;;6289122;22;20371;-93
2023/12/29 10:02:18;;;;;;;1.77;1.63;;;;;;;;;;6288082;22;20371;-94
2023/12/29 10:04:44;;;;;;;1.97;1.70;;;;;;;;;;6289231;22;20372;-94
2023/12/29 10:07:26;;;;;;;1.90;1.47;;;;;;;;;;6287629;22;21115;-92
2023/12/29 10:09:55;;;;;;;1.60;1.47;;;;;;;;;;6289420;22;20379;-88
2023/12/29 10:12:21;;;;;;;5.03;1.70;;;;;;;;;;6287925;22;20411;-85
2023/12/29 10:14:57;;;;;;;1.93;1.63;;;;;;;;;;6285961;22;20483;-91
2023/12/29 10:17:42;;;;;;;2.07;1.97;;;;;;;;;;6311949;22;20383;-89
2023/12/29 10:20:11;;;;;;;2.63;2.00;;;;;;;;;;6314402;22;20351;-92
2023/12/29 10:22:41;;;;;;;1.90;1.40;;;;;;;;;;6317203;22;20364;-94
2023/12/29 10:25:07;;;;;;;2.13;1.80;;;;;;;;;;6288831;22;20363;-94
2023/12/29 10:27:34;;;;;;;2.23;1.40;;;;;;;;;;6291190;22;20434;-94
2023/12/29 10:30:00;;;;;;;1.77;1.67;;;;;;;;;;6288280;22;20406;-91
2023/12/29 10:32:28;;;;;;;1.10;1.00;;;;;;;;;;6289939;22;20417;-93
2023/12/29 10:35:08;;;;;;;1.90;1.33;;;;;;;;;;6290861;22;20435;-93
2023/12/29 10:37:34;;;;;;;1.30;1.20;;;;;;;;;;6289884;22;20599;-95
2023/12/29 10:40:00;;;;;;;5.50;1.30;;;;;;;;;;6289423;22;20387;-95
2023/12/29 10:42:28;;;;;;;1.20;1.10;;;;;;;;;;6293929;22;20368;-93
2023/12/29 10:45:05;;;;;;;3.80;1.50;;;;;;;;;;6297515;22;20375;-93
2023/12/29 10:47:31;;;;;;;1.50;1.13;;;;;;;;;;6292549;22;20557;-94
2023/12/29 10:49:59;;;;;;;1.90;1.20;;;;;;;;;;6290827;22;20425;-92
2023/12/29 10:52:25;;;;;;;1.20;1.10;;;;;;;;;;6313665;22;20371;-92
2023/12/29 10:54:51;;;;;;;1.97;1.20;;;;;;;;;;6286701;22;20442;-92
2023/12/29 10:57:17;;;;;;;1.73;1.43;;;;;;;;;;6286804;22;20379;-90
2023/12/29 10:59:43;;;;;;;1.17;1.07;;;;;;;;;;6287442;22;20411;-92
2023/12/29 11:02:14;;;;;;;1.13;1.00;;;;;;;;;;6290289;22;20380;-93
2023/12/29 11:04:41;;;;;;;1.33;1.13;;;;;;;;;;6290308;22;20900;-93
2023/12/29 11:07:07;;;;;;;2.13;1.23;;;;;;;;;;6288764;22;20419;-95
2023/12/29 11:09:34;;;;;;;2.13;1.50;;;;;;;;;;6288227;22;20739;-93
2023/12/29 11:12:01;;;;;;;1.57;1.30;;;;;;;;;;6289943;22;20407;-92
2023/12/29 11:14:28;;;;;;;1.17;1.07;;;;;;;;;;6289877;22;20532;-93
2023/12/29 11:16:54;;;;;;;1.63;1.20;;;;;;;;;;6289799;22;20394;-92
2023/12/29 11:19:21;;;;;;;1.23;1.13;;;;;;;;;;6289137;22;21074;-93
2023/12/29 11:21:46;;;;;;;1.13;1.00;;;;;;;;;;6314609;22;20421;-93
2023/12/29 11:24:12;;;;;;;1.83;1.27;;;;;;;;;;6288662;22;20379;-91
2023/12/29 11:26:39;;;;;;;1.33;1.23;;;;;;;;;;6289435;22;20415;-91
2023/12/29 11:29:05;;;;;;;1.23;1.07;;;;;;;;;;6290006;22;20386;-94
2023/12/29 11:31:31;;;;;;;1.30;1.20;;;;;;;;;;6289188;22;20378;-92
2023/12/29 11:33:59;;;;;;;2.93;2.73;;;;;;;;;;6288952;22;20403;-94
2023/12/29 11:36:26;;;;;;;1.00;0.90;;;;;;;;;;6278338;22;20381;-94
2023/12/29 11:38:57;;;;;;;1.60;1.33;;;;;;;;;;6226904;22;20373;-92
2023/12/29 11:41:33;;;;;;;3.27;1.20;;;;;;;;;;6227766;22;20433;-94
2023/12/29 11:44:00;;;;;;;0.90;0.80;;;;;;;;;;6228263;22;20396;-92
2023/12/29 11:46:35;;;;;;;1.20;1.10;;;;;;;;;;6227938;22;20421;-92
2023/12/29 11:49:03;;;;;;;1.23;1.13;;;;;;;;;;6251584;22;20437;-93
2023/12/29 11:51:29;;;;;;;1.40;1.20;;;;;;;;;;6226685;22;20378;-93
2023/12/29 11:53:55;;;;;;;2.20;1.60;;;;;;;;;;6250429;22;20384;-91
2023/12/29 11:56:21;;;;;;;2.30;1.50;;;;;;;;;;6224237;22;20377;-92
2023/12/29 11:58:47;;;;;;;2.47;1.20;;;;;;;;;;6223934;22;20833;-92
2023/12/29 12:01:13;;;;;;;1.80;1.37;;;;;;;;;;6227286;22;20645;-92
2023/12/29 12:03:39;;;;;;;1.40;1.03;;;;;;;;;;6230852;22;20377;-91
2023/12/29 12:06:05;;;;;;;1.27;1.10;;;;;;;;;;6232822;22;20361;-91
2023/12/29 12:08:31;;;;;;;1.57;1.10;;;;;;;;;;6293438;22;20379;-94
2023/12/29 12:10:57;;;;;;;2.73;1.30;;;;;;;;;;6315079;22;20379;-92
2023/12/29 12:13:42;;;;;;;1.00;0.90;;;;;;;;;;6289024;22;20383;-94
2023/12/29 12:16:08;;;;;;;1.20;1.07;;;;;;;;;;6294594;22;20379;-92
2023/12/29 12:18:35;;;;;;;1.83;1.30;;;;;;;;;;6291413;22;20392;-92
2023/12/29 12:21:01;;;;;;;1.10;1.00;;;;;;;;;;6288519;22;20375;-93
2023/12/29 12:23:27;;;;;;;1.60;1.10;;;;;;;;;;6290510;22;20419;-93
2023/12/29 12:25:57;;;;;;;1.50;1.40;;;;;;;;;;6289282;22;20372;-93
2023/12/29 12:28:23;;;;;;;1.20;1.00;;;;;;;;;;6289233;22;20419;-93
2023/12/29 12:30:48;;;;;;;1.87;1.30;;;;;;;;;;6290189;22;20401;-93
2023/12/29 12:33:15;;;;;;;1.40;1.23;;;;;;;;;;6290268;22;20378;-92
2023/12/29 12:35:40;;;;;;;1.87;1.00;;;;;;;;;;6293116;22;20375;-93
2023/12/29 12:38:13;;;;;;;2.93;1.17;;;;;;;;;;6287488;22;20403;-94
2023/12/29 12:40:40;;;;;;;1.70;1.23;;;;;;;;;;6285649;22;20870;-91
2023/12/29 12:43:06;;;;;;;1.40;1.30;;;;;;;;;;6285900;22;20368;-93
2023/12/29 12:45:36;;;;;;;1.70;1.27;;;;;;;;;;6287547;22;20380;-92
2023/12/29 12:48:10;;;;;;;2.00;1.50;;;;;;;;;;6286451;22;20415;-92
2023/12/29 12:50:36;;;;;;;1.47;1.10;;;;;;;;;;6286511;22;20385;-93
2023/12/29 12:53:08;;;;;;;1.30;1.17;;;;;;;;;;6284091;22;20380;-92
2023/12/29 12:55:34;;;;;;;2.37;2.17;;;;;;;;;;6288596;22;20417;-91
2023/12/29 12:57:59;;;;;;;1.60;1.50;;;;;;;;;;6285585;22;20391;-95
2023/12/29 13:00:26;;;;;;;1.20;1.10;;;;;;;;;;6285898;22;20383;-94
2023/12/29 13:02:52;;;;;;;1.93;1.17;;;;;;;;;;6285833;22;20376;-93
2023/12/29 13:05:18;;;;;;;2.13;1.60;;;;;;;;;;6284647;22;20458;-94
2023/12/29 13:07:44;;;;;;;2.30;1.30;;;;;;;;;;6288190;22;20505;-93
2023/12/29 13:10:10;;;;;;;2.10;1.33;;;;;;;;;;6286957;22;20859;-93
2023/12/29 13:12:36;;;;;;;1.33;1.07;;;;;;;;;;6286541;22;20376;-94
2023/12/29 13:15:09;;;;;;;2.07;1.67;;;;;;;;;;6289075;22;20382;-94
2023/12/29 13:17:35;;;;;;;1.80;1.30;;;;;;;;;;6288425;22;20577;-92
2023/12/29 13:20:02;;;;;;;1.57;1.13;;;;;;;;;;6288087;22;20803;-92
2023/12/29 13:22:28;;;;;;;1.53;1.17;;;;;;;;;;6289220;22;20474;-93
2023/12/29 13:24:54;;;;;;;1.00;0.90;;;;;;;;;;6289701;22;20383;-94
2023/12/29 13:27:21;;;;;;;1.37;1.10;;;;;;;;;;6286932;22;20902;-92
2023/12/29 13:29:47;;;;;;;3.70;1.80;;;;;;;;;;6286971;22;20372;-93
2023/12/29 13:32:28;;;;;;;2.17;1.40;;;;;;;;;;6290011;22;20391;-94
2023/12/29 13:35:05;;;;;;;1.40;1.10;;;;;;;;;;6289144;22;20383;-94
2023/12/29 13:37:32;;;;;;;1.10;1.00;;;;;;;;;;6289837;22;20734;-94
2023/12/29 13:40:11;;;;;;;1.37;0.93;;;;;;;;;;6287121;22;20920;-93
2023/12/29 13:42:37;;;;;;;1.00;0.90;;;;;;;;;;6313949;22;20368;-93
2023/12/29 13:45:03;;;;;;;1.27;1.10;;;;;;;;;;6289138;22;20751;-94
2023/12/29 13:47:29;;;;;;;2.20;2.00;;;;;;;;;;6313696;22;20554;-93
2023/12/29 13:49:55;;;;;;;1.70;1.20;;;;;;;;;;6288240;22;20414;-92
2023/12/29 13:52:21;;;;;;;1.40;1.30;;;;;;;;;;6287033;22;20850;-94
2023/12/29 13:54:47;;;;;;;2.40;1.80;;;;;;;;;;6290967;22;20406;-94
2023/12/29 13:57:14;;;;;;;1.67;1.57;;;;;;;;;;6316314;22;20375;-93
2023/12/29 13:59:40;;;;;;;1.40;1.30;;;;;;;;;;6290619;22;20379;-94
2023/12/29 14:02:29;;;;;;;2.23;1.30;;;;;;;;;;6291343;22;20486;-94
2023/12/29 14:05:14;;;;;;;2.00;1.33;;;;;;;;;;6293258;22;20364;-92
2023/12/29 14:07:44;;;;;;;1.57;1.40;;;;;;;;;;6344651;22;20404;-92
2023/12/29 14:10:10;;;;;;;1.40;1.00;;;;;;;;;;6294045;22;20375;-93
2023/12/29 14:12:36;;;;;;;1.47;1.20;;;;;;;;;;6293448;22;20376;-93
2023/12/29 14:15:05;;;;;;;3.90;1.20;;;;;;;;;;6293684;22;20402;-93
2023/12/29 14:17:33;;;;;;;1.43;1.13;;;;;;;;;;6292084;22;20399;-92
2023/12/29 14:20:04;;;;;;;1.20;1.10;;;;;;;;;;6291180;22;20427;-92
2023/12/29 14:22:30;;;;;;;2.37;1.90;;;;;;;;;;6290132;22;20363;-93
2023/12/29 14:25:14;;;;;;;2.10;1.40;;;;;;;;;;6292186;22;20384;-94
2023/12/29 14:27:41;;;;;;;2.43;1.37;;;;;;;;;;6289550;22;20502;-92
2023/12/29 14:30:18;;;;;;;7.90;1.50;;;;;;;;;;6290074;22;20387;-93
2023/12/29 14:32:44;;;;;;;1.43;1.00;;;;;;;;;;6289562;22;20452;-92
2023/12/29 14:35:10;;;;;;;1.70;1.07;;;;;;;;;;6290547;22;20367;-95
2023/12/29 14:37:36;;;;;;;2.10;1.50;;;;;;;;;;6289419;22;20415;-92
2023/12/29 14:40:04;;;;;;;3.03;1.00;;;;;;;;;;6289285;22;20850;-94
2023/12/29 14:42:30;;;;;;;1.87;1.20;;;;;;;;;;6289973;22;20446;-93
2023/12/29 14:44:56;;;;;;;1.47;1.37;;;;;;;;;;6287412;22;20449;-92
2023/12/29 14:47:22;;;;;;;2.67;2.10;;;;;;;;;;6290190;22;20415;-91
2023/12/29 14:49:48;;;;;;;5.20;2.17;;;;;;;;;;6292341;22;20371;-95
2023/12/29 14:52:14;;;;;;;2.27;1.87;;;;;;;;;;6291344;22;20379;-93